Time;durP1;ratioP1;P1;durP2;ratioP2;P2;SDS_P1;SDS_P2;PMS_P1;PMS_P2;Temp;Humidity;BMP_temperature;BMP_pressure;BME280_temperature;BME280_humidity;BME280_pressure;Samples;Min_cycle;Max_cycle;Signal;HPM_P1;HPM_P2
2021/05/30 00:01:32;;;;;;;1.27;1.27;;;28.50;44.80;;;;;;5146884;27;20442;-41
2021/05/30 00:04:03;;;;;;;1.10;1.00;;;28.40;45.00;;;;;;5147611;27;20455;-41
2021/05/30 00:06:33;;;;;;;1.60;1.10;;;28.30;45.10;;;;;;5147191;27;20472;-41
2021/05/30 00:09:05;;;;;;;1.10;1.10;;;28.20;44.90;;;;;;5147804;27;20437;-42
2021/05/30 00:11:37;;;;;;;1.30;1.20;;;28.00;45.90;;;;;;5147428;27;20484;-41
2021/05/30 00:14:18;;;;;;;1.37;1.20;;;28.00;46.60;;;;;;5147058;27;20546;-41
2021/05/30 00:16:49;;;;;;;1.27;1.17;;;28.00;45.40;;;;;;5147275;27;20487;-41
2021/05/30 00:19:19;;;;;;;1.17;1.10;;;27.90;46.00;;;;;;5147040;27;20953;-42
2021/05/30 00:21:50;;;;;;;1.30;1.17;;;27.90;46.70;;;;;;5143109;27;20449;-43
2021/05/30 00:24:20;;;;;;;3.60;1.27;;;27.80;46.70;;;;;;5147274;27;20533;-42
2021/05/30 00:26:52;;;;;;;2.10;1.70;;;27.80;44.80;;;;;;5147590;27;20467;-42
2021/05/30 00:29:22;;;;;;;1.87;1.43;;;27.60;46.00;;;;;;5146922;27;20450;-42
2021/05/30 00:31:53;;;;;;;1.50;1.40;;;27.50;45.20;;;;;;5146823;27;20449;-42
2021/05/30 00:34:23;;;;;;;1.20;1.10;;;27.40;46.20;;;;;;5146983;27;20448;-42
2021/05/30 00:36:54;;;;;;;1.37;1.10;;;27.30;46.80;;;;;;5142634;27;20452;-42
2021/05/30 00:39:24;;;;;;;1.33;1.23;;;27.30;46.60;;;;;;5143394;27;20437;-43
2021/05/30 00:41:56;;;;;;;1.13;1.00;;;27.30;46.60;;;;;;5145923;27;20445;-43
2021/05/30 00:44:27;;;;;;;1.80;1.70;;;27.20;46.60;;;;;;5145646;27;20884;-43
2021/05/30 00:46:59;;;;;;;1.03;1.03;;;27.00;47.30;;;;;;5145964;27;20446;-40
2021/05/30 00:49:29;;;;;;;1.47;1.37;;;27.10;46.00;;;;;;5137161;27;20534;-43
2021/05/30 00:52:00;;;;;;;1.07;1.07;;;27.00;47.70;;;;;;5145894;27;20493;-42
2021/05/30 00:54:31;;;;;;;1.83;1.03;;;27.00;46.30;;;;;;5147249;27;20441;-43
2021/05/30 00:57:04;;;;;;;1.77;1.00;;;27.00;45.10;;;;;;5146390;27;20441;-40
2021/05/30 00:59:35;;;;;;;1.20;1.10;;;26.90;44.50;;;;;;5144788;27;20445;-41
2021/05/30 01:02:06;;;;;;;1.17;1.07;;;26.90;45.50;;;;;;5146117;27;20505;-42
2021/05/30 01:04:37;;;;;;;1.70;1.60;;;26.80;44.70;;;;;;5146468;27;20959;-41
2021/05/30 01:07:07;;;;;;;2.60;1.63;;;26.70;44.10;;;;;;5143447;27;20485;-41
2021/05/30 01:09:38;;;;;;;1.60;1.50;;;26.60;42.20;;;;;;5145058;27;20429;-41
2021/05/30 01:12:10;;;;;;;0.90;0.90;;;26.50;43.50;;;;;;5145288;27;20441;-41
2021/05/30 01:14:41;;;;;;;1.37;1.20;;;26.40;44.90;;;;;;5145536;27;20448;-41
2021/05/30 01:17:12;;;;;;;1.83;1.50;;;26.30;45.10;;;;;;5145791;27;20457;-41
2021/05/30 01:19:45;;;;;;;2.00;1.37;;;26.30;46.20;;;;;;5144425;27;20556;-41
2021/05/30 01:22:16;;;;;;;1.83;1.73;;;26.20;46.80;;;;;;5144617;27;20886;-41
2021/05/30 01:24:48;;;;;;;1.47;1.37;;;26.20;47.00;;;;;;5145876;27;20469;-41
2021/05/30 01:27:19;;;;;;;1.90;1.80;;;26.20;46.90;;;;;;5145594;27;20476;-41
2021/05/30 01:29:50;;;;;;;5.70;5.20;;;26.10;48.90;;;;;;5145383;27;20504;-41
2021/05/30 01:32:20;;;;;;;5.27;4.87;;;26.00;50.20;;;;;;5145393;27;20453;-41
2021/05/30 01:34:51;;;;;;;21.10;19.00;;;26.00;49.60;;;;;;5146481;27;20441;-41
2021/05/30 01:37:21;;;;;;;17.00;15.70;;;25.90;51.60;;;;;;5139425;27;20477;-40
2021/05/30 01:39:53;;;;;;;17.10;15.50;;;25.80;51.20;;;;;;5146145;27;20453;-41
2021/05/30 01:42:23;;;;;;;16.20;15.00;;;25.80;49.90;;;;;;5144790;27;20946;-41
2021/05/30 01:44:54;;;;;;;13.80;12.67;;;25.80;50.60;;;;;;5144232;27;20603;-41
2021/05/30 01:47:25;;;;;;;21.60;19.50;;;25.70;50.60;;;;;;5145368;27;20483;-42
2021/05/30 01:49:56;;;;;;;11.23;10.20;;;25.60;50.70;;;;;;5144584;27;20480;-41
2021/05/30 01:52:27;;;;;;;2.00;1.80;;;25.60;51.20;;;;;;5145526;27;20445;-42
2021/05/30 01:54:58;;;;;;;2.87;2.27;;;25.50;50.50;;;;;;5144759;27;20456;-42
2021/05/30 01:57:29;;;;;;;1.70;1.60;;;25.40;50.90;;;;;;5145107;27;20477;-41
2021/05/30 01:59:59;;;;;;;1.70;1.60;;;25.30;50.80;;;;;;5144839;27;20441;-41
2021/05/30 02:02:31;;;;;;;1.73;1.63;;;25.30;51.90;;;;;;5140639;27;20789;-41
2021/05/30 02:05:01;;;;;;;1.87;1.77;;;25.20;51.10;;;;;;5144695;27;20445;-41
2021/05/30 02:07:33;;;;;;;1.93;1.83;;;25.20;52.00;;;;;;5145289;27;20504;-41
2021/05/30 02:10:05;;;;;;;2.40;2.00;;;25.10;52.30;;;;;;5129143;27;20504;-41
2021/05/30 02:12:36;;;;;;;2.60;1.70;;;25.00;51.80;;;;;;5144671;27;20513;-41
2021/05/30 02:15:08;;;;;;;3.43;1.50;;;25.00;52.00;;;;;;5143545;27;20449;-41
2021/05/30 02:17:40;;;;;;;1.90;1.70;;;25.00;51.70;;;;;;5144450;27;20476;-42
2021/05/30 02:20:13;;;;;;;1.97;1.87;;;24.90;52.90;;;;;;5144311;27;20448;-40
2021/05/30 02:22:43;;;;;;;2.40;1.70;;;24.80;52.60;;;;;;5143806;27;20449;-41
2021/05/30 02:25:15;;;;;;;2.10;1.70;;;24.70;52.90;;;;;;5144299;27;20452;-41
2021/05/30 02:27:45;;;;;;;2.20;2.00;;;24.60;52.20;;;;;;5145060;27;20491;-41
2021/05/30 02:30:17;;;;;;;1.67;1.53;;;24.60;53.00;;;;;;5143816;27;20424;-41
2021/05/30 02:32:47;;;;;;;3.47;2.10;;;24.50;53.30;;;;;;5142857;27;20443;-41
2021/05/30 02:35:18;;;;;;;1.67;1.57;;;24.40;53.70;;;;;;5142653;27;20449;-41
2021/05/30 02:37:49;;;;;;;2.30;2.17;;;24.40;54.10;;;;;;5142646;27;20441;-41
2021/05/30 02:40:20;;;;;;;1.83;1.73;;;24.30;55.00;;;;;;5144031;27;20480;-41
2021/05/30 02:42:51;;;;;;;2.10;1.80;;;24.10;55.80;;;;;;5142696;27;20456;-40
2021/05/30 02:45:21;;;;;;;2.20;1.83;;;24.10;56.30;;;;;;5141980;27;20523;-41
2021/05/30 02:47:52;;;;;;;3.13;2.43;;;24.00;56.60;;;;;;5143167;27;20447;-41
2021/05/30 02:50:23;;;;;;;1.90;1.80;;;24.00;57.70;;;;;;5142907;27;20541;-41
2021/05/30 02:52:55;;;;;;;2.23;1.90;;;23.90;57.50;;;;;;5143584;27;22066;-41
2021/05/30 02:55:27;;;;;;;2.50;2.30;;;23.90;57.50;;;;;;5143457;27;20491;-41
2021/05/30 02:58:00;;;;;;;2.80;2.60;;;23.90;58.40;;;;;;5140855;27;20452;-41
2021/05/30 03:00:30;;;;;;;2.10;1.90;;;23.80;58.00;;;;;;5141940;27;20445;-41
2021/05/30 03:03:01;;;;;;;1.87;1.77;;;23.70;57.90;;;;;;5143461;27;20437;-40
2021/05/30 03:05:32;;;;;;;2.30;1.90;;;23.70;58.00;;;;;;5144326;27;20456;-41
2021/05/30 03:08:02;;;;;;;2.37;2.00;;;23.60;58.50;;;;;;5144272;27;20552;-41
2021/05/30 03:10:34;;;;;;;1.73;1.60;;;23.60;58.50;;;;;;5143847;27;20449;-41
2021/05/30 03:13:09;;;;;;;3.40;3.20;;;23.50;58.50;;;;;;5143261;27;20470;-41
2021/05/30 03:15:40;;;;;;;2.70;2.33;;;23.40;58.70;;;;;;5142682;27;20480;-41
2021/05/30 03:18:10;;;;;;;3.10;2.50;;;23.30;59.20;;;;;;5143447;27;20912;-39
2021/05/30 03:20:41;;;;;;;2.53;2.30;;;23.20;59.50;;;;;;5142986;27;20456;-41
2021/05/30 03:23:11;;;;;;;2.90;2.70;;;23.10;59.40;;;;;;5144073;28;20420;-41
2021/05/30 03:25:43;;;;;;;2.27;2.17;;;23.10;59.30;;;;;;5142511;27;20505;-40
2021/05/30 03:28:13;;;;;;;3.03;2.53;;;23.10;59.30;;;;;;5141938;27;20507;-41
2021/05/30 03:30:44;;;;;;;2.33;2.13;;;22.90;59.90;;;;;;5142586;28;20490;-41
2021/05/30 03:33:14;;;;;;;1.67;1.57;;;22.90;60.30;;;;;;5143287;28;20464;-41
2021/05/30 03:35:45;;;;;;;1.97;1.80;;;22.80;61.20;;;;;;5144470;28;20460;-41
2021/05/30 03:38:17;;;;;;;4.23;3.93;;;22.70;60.50;;;;;;5142491;28;20461;-41
2021/05/30 03:40:51;;;;;;;2.90;2.00;;;22.60;60.80;;;;;;5142995;28;20521;-41
2021/05/30 03:43:21;;;;;;;2.40;2.20;;;22.50;61.90;;;;;;5143143;28;20458;-41
2021/05/30 03:45:52;;;;;;;2.67;2.47;;;22.40;62.30;;;;;;5136046;28;20476;-41
2021/05/30 03:48:23;;;;;;;2.20;2.03;;;22.30;62.90;;;;;;5143529;28;20480;-41
2021/05/30 03:50:54;;;;;;;2.30;2.10;;;22.20;62.90;;;;;;5143268;28;20472;-42
2021/05/30 03:53:44;;;;;;;2.47;2.00;;;22.10;62.80;;;;;;5143727;28;20775;-41
2021/05/30 03:56:15;;;;;;;3.60;3.30;;;22.00;63.80;;;;;;5143031;28;20415;-41
2021/05/30 03:58:46;;;;;;;6.60;6.10;;;21.90;64.30;;;;;;5143430;28;20452;-41
2021/05/30 04:01:16;;;;;;;6.93;6.30;;;21.80;64.30;;;;;;5136995;28;20491;-41
2021/05/30 04:03:47;;;;;;;13.40;12.00;;;21.60;65.00;;;;;;5143166;28;20903;-40
2021/05/30 04:06:18;;;;;;;16.63;15.40;;;21.50;66.30;;;;;;5143741;28;20494;-41
2021/05/30 04:08:48;;;;;;;8.90;8.23;;;21.50;65.70;;;;;;5143381;28;20455;-41
2021/05/30 04:11:20;;;;;;;8.70;7.90;;;21.40;66.10;;;;;;5142511;28;20424;-41
2021/05/30 04:13:50;;;;;;;16.40;15.10;;;21.30;66.60;;;;;;5142660;28;20902;-41
2021/05/30 04:16:21;;;;;;;33.70;31.30;;;21.20;68.50;;;;;;5142125;28;20423;-41
2021/05/30 04:18:52;;;;;;;44.77;41.37;;;21.10;67.50;;;;;;5139530;28;20471;-41
2021/05/30 04:21:22;;;;;;;17.20;16.00;;;21.10;68.90;;;;;;5143012;28;20418;-41
2021/05/30 04:23:53;;;;;;;10.90;10.20;;;21.00;68.90;;;;;;5140480;28;20725;-40
2021/05/30 04:26:26;;;;;;;20.60;19.10;;;20.90;68.90;;;;;;5142822;28;20445;-40
2021/05/30 04:28:56;;;;;;;24.00;22.30;;;20.80;69.90;;;;;;5141695;28;20491;-41
2021/05/30 04:31:27;;;;;;;32.60;30.43;;;20.80;70.30;;;;;;5141877;28;20448;-40
2021/05/30 04:33:58;;;;;;;17.20;16.00;;;20.70;70.70;;;;;;5142526;28;20452;-41
2021/05/30 04:36:28;;;;;;;16.93;15.83;;;20.60;71.10;;;;;;5144254;27;20437;-42
2021/05/30 04:38:59;;;;;;;24.40;22.50;;;20.60;70.30;;;;;;5132943;27;20517;-41
2021/05/30 04:41:30;;;;;;;26.30;24.10;;;20.70;70.60;;;;;;5146567;27;20416;-39
2021/05/30 04:44:01;;;;;;;25.77;23.70;;;20.70;71.20;;;;;;5145984;27;20511;-42
2021/05/30 04:46:32;;;;;;;48.47;44.27;;;20.60;71.50;;;;;;5146115;27;20424;-42
2021/05/30 04:49:02;;;;;;;29.00;26.63;;;20.50;71.50;;;;;;5146965;27;20483;-41
2021/05/30 04:51:33;;;;;;;20.27;18.80;;;20.60;71.80;;;;;;5145134;27;20455;-41
2021/05/30 04:54:03;;;;;;;54.60;50.30;;;20.50;72.20;;;;;;5146421;27;20423;-40
2021/05/30 04:56:35;;;;;;;32.93;30.23;;;20.50;72.00;;;;;;5145708;27;20548;-42
2021/05/30 04:59:06;;;;;;;55.23;50.93;;;20.40;72.70;;;;;;5144812;27;20464;-41
2021/05/30 05:01:36;;;;;;;30.77;28.40;;;20.40;72.80;;;;;;5145670;27;20448;-40
2021/05/30 05:04:07;;;;;;;52.13;48.27;;;20.40;72.70;;;;;;5145682;27;20461;-40
2021/05/30 05:06:37;;;;;;;41.47;38.37;;;20.40;72.80;;;;;;5143733;27;20476;-41
2021/05/30 05:09:08;;;;;;;98.13;89.40;;;20.30;73.90;;;;;;5144768;27;20484;-41
2021/05/30 05:11:39;;;;;;;46.17;42.47;;;20.30;73.50;;;;;;5145021;27;20441;-41
2021/05/30 05:14:10;;;;;;;35.10;32.17;;;20.20;74.10;;;;;;5142459;27;20474;-41
2021/05/30 05:16:40;;;;;;;24.73;22.87;;;20.10;75.10;;;;;;5143614;27;20448;-39
2021/05/30 05:19:11;;;;;;;44.97;41.60;;;20.00;74.90;;;;;;5144579;27;20419;-40
2021/05/30 05:21:41;;;;;;;40.13;37.20;;;20.10;74.90;;;;;;5144352;27;20473;-41
2021/05/30 05:24:12;;;;;;;35.97;33.07;;;20.10;74.30;;;;;;5145401;27;20481;-41
2021/05/30 05:26:44;;;;;;;28.50;26.37;;;20.10;74.00;;;;;;5144929;27;20423;-41
2021/05/30 05:29:14;;;;;;;36.93;34.20;;;20.00;74.60;;;;;;5144930;27;20852;-41
2021/05/30 05:31:44;;;;;;;30.70;28.70;;;20.00;74.10;;;;;;5140443;27;20426;-40
2021/05/30 05:34:15;;;;;;;48.77;45.70;;;20.00;75.10;;;;;;5145555;27;20615;-40
2021/05/30 05:36:46;;;;;;;33.60;31.33;;;20.00;74.70;;;;;;5142915;27;20416;-41
2021/05/30 05:39:16;;;;;;;17.97;16.67;;;19.90;75.00;;;;;;5140304;27;20424;-40
2021/05/30 05:41:49;;;;;;;32.80;30.43;;;19.90;75.40;;;;;;5144771;27;20445;-41
2021/05/30 05:44:19;;;;;;;31.87;29.43;;;19.80;75.30;;;;;;5144390;27;20448;-41
2021/05/30 05:46:50;;;;;;;26.70;24.80;;;19.80;75.80;;;;;;5144846;27;20426;-41
2021/05/30 05:49:20;;;;;;;29.63;27.40;;;19.60;77.00;;;;;;5144025;27;20501;-40
2021/05/30 05:51:51;;;;;;;45.27;41.87;;;19.50;77.50;;;;;;5144346;27;20472;-41
2021/05/30 05:54:42;;;;;;;35.43;32.80;;;19.50;78.00;;;;;;5143802;27;20528;-40
2021/05/30 05:57:13;;;;;;;62.33;57.20;;;19.40;77.50;;;;;;5139051;27;20514;-41
2021/05/30 05:59:44;;;;;;;40.63;36.77;;;19.50;77.30;;;;;;5143937;27;20420;-41
2021/05/30 06:02:14;;;;;;;36.83;34.10;;;19.50;77.20;;;;;;5143540;27;20818;-40
2021/05/30 06:04:45;;;;;;;23.40;21.70;;;19.40;78.00;;;;;;5143894;27;20415;-40
2021/05/30 06:07:15;;;;;;;23.90;22.00;;;19.40;78.10;;;;;;5144756;27;20453;-40
2021/05/30 06:09:46;;;;;;;9.10;8.40;;;19.30;77.40;;;;;;5143910;27;20489;-40
2021/05/30 06:12:18;;;;;;;27.37;25.30;;;19.40;77.30;;;;;;5144655;27;20475;-40
2021/05/30 06:14:48;;;;;;;25.93;23.83;;;19.30;77.90;;;;;;5143624;27;20985;-40
2021/05/30 06:17:19;;;;;;;13.40;12.20;;;19.30;78.60;;;;;;5144053;27;20487;-40
2021/05/30 06:19:49;;;;;;;10.13;9.47;;;19.20;78.30;;;;;;5143704;27;20449;-40
2021/05/30 06:22:19;;;;;;;13.90;12.90;;;19.20;78.80;;;;;;5144502;27;20431;-40
2021/05/30 06:24:50;;;;;;;22.83;21.13;;;19.10;79.40;;;;;;5142730;27;20475;-41
2021/05/30 06:27:22;;;;;;;13.00;12.00;;;19.00;79.90;;;;;;5144474;27;20453;-42
2021/05/30 06:29:52;;;;;;;20.07;18.73;;;19.00;80.50;;;;;;5143337;27;20484;-41
2021/05/30 06:32:23;;;;;;;8.07;7.57;;;19.00;80.80;;;;;;5143776;27;20505;-41
2021/05/30 06:34:53;;;;;;;29.47;26.73;;;18.80;82.30;;;;;;5143340;27;20448;-40
2021/05/30 06:37:24;;;;;;;18.10;16.90;;;18.80;82.60;;;;;;5143728;27;20452;-42
2021/05/30 06:39:54;;;;;;;10.90;10.20;;;18.70;83.00;;;;;;5143525;27;20494;-41
2021/05/30 06:42:26;;;;;;;11.47;10.67;;;18.70;83.60;;;;;;5144018;27;20455;-41
2021/05/30 06:44:56;;;;;;;13.20;12.30;;;18.60;84.80;;;;;;5138988;27;20464;-40
2021/05/30 06:47:27;;;;;;;73.10;66.93;;;18.60;84.30;;;;;;5143828;27;20441;-41
2021/05/30 06:49:58;;;;;;;30.03;27.63;;;18.50;84.90;;;;;;5143026;27;20480;-41
2021/05/30 06:52:29;;;;;;;26.90;24.97;;;18.50;86.20;;;;;;5144143;27;20837;-41
2021/05/30 06:55:20;;;;;;;36.10;33.20;;;18.50;85.90;;;;;;5142305;27;20484;-41
2021/05/30 06:57:52;;;;;;;44.07;40.27;;;18.40;86.40;;;;;;5143587;27;20522;-41
2021/05/30 07:00:23;;;;;;;37.10;33.67;;;18.30;87.40;;;;;;5142871;27;20448;-40
2021/05/30 07:02:54;;;;;;;25.47;23.43;;;18.30;87.60;;;;;;5142841;27;20791;-41
2021/05/30 07:05:24;;;;;;;7.23;6.63;;;18.30;87.80;;;;;;5142972;27;20429;-40
2021/05/30 07:07:55;;;;;;;9.57;8.67;;;18.20;88.00;;;;;;5142215;27;20448;-40
2021/05/30 07:10:25;;;;;;;6.37;5.20;;;18.20;88.70;;;;;;5142814;27;20480;-40
2021/05/30 07:12:57;;;;;;;7.47;5.07;;;18.10;88.10;;;;;;5143544;27;20479;-41
2021/05/30 07:15:27;;;;;;;4.40;4.00;;;18.10;88.30;;;;;;5143163;27;20517;-40
2021/05/30 07:17:58;;;;;;;5.40;4.90;;;18.00;89.40;;;;;;5142241;27;20471;-40
2021/05/30 07:20:28;;;;;;;6.33;5.73;;;18.00;88.80;;;;;;5142657;27;20427;-40
2021/05/30 07:22:59;;;;;;;4.47;4.07;;;18.00;90.00;;;;;;5143361;27;20449;-40
2021/05/30 07:25:30;;;;;;;10.50;9.70;;;17.90;90.00;;;;;;5143147;28;20463;-41
2021/05/30 07:28:01;;;;;;;11.57;10.57;;;17.90;90.20;;;;;;5142673;28;21089;-40
2021/05/30 07:30:32;;;;;;;7.20;6.60;;;17.80;90.30;;;;;;5142013;28;20469;-40
2021/05/30 07:33:03;;;;;;;6.07;5.43;;;17.80;90.40;;;;;;5143372;28;20443;-40
2021/05/30 07:35:34;;;;;;;10.03;9.03;;;17.80;90.50;;;;;;5143064;27;20444;-40
2021/05/30 07:38:05;;;;;;;14.20;13.10;;;17.70;91.00;;;;;;5142265;28;20449;-40
2021/05/30 07:40:36;;;;;;;11.07;10.17;;;17.70;90.80;;;;;;5142593;28;20445;-40
2021/05/30 07:43:08;;;;;;;12.67;11.37;;;17.60;91.60;;;;;;5143466;28;20422;-41
2021/05/30 07:45:38;;;;;;;13.50;12.30;;;17.50;92.20;;;;;;5142827;28;20492;-41
2021/05/30 07:48:09;;;;;;;10.47;9.13;;;17.40;92.30;;;;;;5142010;27;20448;-41
2021/05/30 07:50:40;;;;;;;5.03;4.60;;;17.30;93.60;;;;;;5142678;28;20956;-41
2021/05/30 07:53:11;;;;;;;4.13;3.73;;;17.30;94.00;;;;;;5143316;28;20479;-41
2021/05/30 07:55:42;;;;;;;3.70;3.40;;;17.20;94.70;;;;;;5142797;28;20956;-41
2021/05/30 07:58:13;;;;;;;6.37;5.70;;;17.10;94.90;;;;;;5142549;28;20452;-41
2021/05/30 08:00:44;;;;;;;9.33;8.43;;;17.10;95.40;;;;;;5141848;28;20451;-40
2021/05/30 08:03:14;;;;;;;6.83;6.13;;;17.10;96.40;;;;;;5142115;28;20423;-40
2021/05/30 08:05:45;;;;;;;5.53;4.50;;;17.10;96.20;;;;;;5142987;28;20452;-41
2021/05/30 08:08:15;;;;;;;3.03;2.73;;;17.00;96.40;;;;;;5142426;28;20441;-41
2021/05/30 08:10:47;;;;;;;2.50;2.30;;;16.90;96.80;;;;;;5142481;27;20532;-41
2021/05/30 08:13:18;;;;;;;2.20;2.00;;;16.80;97.00;;;;;;5146926;27;20472;-41
2021/05/30 08:15:49;;;;;;;3.50;2.60;;;16.80;97.70;;;;;;5130057;27;20451;-41
2021/05/30 08:18:19;;;;;;;3.80;2.40;;;16.70;97.90;;;;;;5145484;27;20954;-41
2021/05/30 08:20:49;;;;;;;3.07;2.50;;;16.70;98.90;;;;;;5146327;27;20477;-40
2021/05/30 08:23:20;;;;;;;2.80;2.60;;;16.60;99.30;;;;;;5143238;27;20459;-41
2021/05/30 08:25:50;;;;;;;3.53;2.90;;;16.60;99.90;;;;;;5146989;27;20444;-40
2021/05/30 08:28:22;;;;;;;4.27;3.80;;;16.50;99.90;;;;;;5146199;27;20441;-40
2021/05/30 08:30:52;;;;;;;3.47;2.93;;;16.50;99.90;;;;;;5145663;27;20822;-41
2021/05/30 08:33:23;;;;;;;3.00;2.70;;;16.40;99.90;;;;;;5141957;27;20510;-41
2021/05/30 08:35:53;;;;;;;4.00;3.60;;;16.40;99.90;;;;;;5146574;27;20482;-41
2021/05/30 08:38:24;;;;;;;5.57;3.40;;;16.30;99.90;;;;;;5145796;27;20491;-40
2021/05/30 08:40:59;;;;;;;5.83;3.50;;;16.30;99.90;;;;;;5146798;27;20535;-41
2021/05/30 08:43:31;;;;;;;3.93;3.53;;;16.30;99.90;;;;;;5146380;27;20433;-41
2021/05/30 08:46:01;;;;;;;4.10;3.00;;;16.30;99.90;;;;;;5146207;27;20456;-43
2021/05/30 08:48:32;;;;;;;3.30;3.00;;;16.30;99.90;;;;;;5145371;27;20469;-41
2021/05/30 08:51:03;;;;;;;4.47;3.47;;;16.20;99.90;;;;;;5145270;27;20537;-41
2021/05/30 08:53:36;;;;;;;5.83;3.93;;;16.20;99.90;;;;;;5143150;27;20540;-40
2021/05/30 08:56:08;;;;;;;6.63;3.67;;;16.20;99.90;;;;;;5146027;27;20453;-41
2021/05/30 08:58:42;;;;;;;4.77;3.17;;;16.20;99.90;;;;;;5146205;27;20449;-41
2021/05/30 09:01:14;;;;;;;3.33;3.03;;;16.10;99.90;;;;;;5145989;27;20459;-42
2021/05/30 09:03:53;;;;;;;4.43;3.20;;;16.10;99.90;;;;;;5145572;27;20489;-40
2021/05/30 09:06:24;;;;;;;3.43;2.67;;;16.00;99.90;;;;;;5145983;27;20449;-41
2021/05/30 09:08:55;;;;;;;3.93;2.60;;;15.90;99.90;;;;;;5145583;27;20537;-41
2021/05/30 09:11:43;;;;;;;3.33;2.70;;;15.90;99.90;;;;;;5145862;27;20480;-40
2021/05/30 09:14:17;;;;;;;3.40;3.10;;;15.90;99.90;;;;;;5145212;27;20491;-41
2021/05/30 09:16:49;;;;;;;2.90;2.60;;;15.90;99.90;;;;;;5146485;27;20903;-38
2021/05/30 09:19:37;;;;;;;4.03;3.07;;;15.80;99.90;;;;;;5145245;27;20431;-41
2021/05/30 09:22:25;;;;;;;2.87;2.60;;;15.70;99.90;;;;;;5145594;27;20456;-41
2021/05/30 09:25:20;;;;;;;3.00;2.50;;;15.70;99.90;;;;;;5143419;27;20472;-41
2021/05/30 09:27:54;;;;;;;5.43;2.87;;;15.80;99.90;;;;;;5145915;27;20476;-42
2021/05/30 09:30:39;;;;;;;2.50;2.30;;;15.70;99.90;;;;;;5144296;27;20904;-40
2021/05/30 09:33:21;;;;;;;2.90;2.70;;;15.70;99.90;;;;;;5145308;27;20461;-41
2021/05/30 09:35:57;;;;;;;3.10;2.90;;;15.70;99.90;;;;;;5145471;27;20453;-40
2021/05/30 09:38:32;;;;;;;4.50;2.87;;;15.70;99.90;;;;;;5144658;27;20476;-40
2021/05/30 09:41:04;;;;;;;4.63;2.80;;;15.60;99.90;;;;;;5145478;27;20433;-41
2021/05/30 09:43:36;;;;;;;3.00;2.50;;;15.60;99.90;;;;;;5145086;27;20441;-40
2021/05/30 09:46:12;;;;;;;2.77;2.57;;;15.50;99.90;;;;;;5143236;27;20445;-41
2021/05/30 09:48:45;;;;;;;3.10;2.80;;;15.50;99.90;;;;;;5144179;27;20485;-39
2021/05/30 09:51:37;;;;;;;3.10;2.90;;;15.40;99.90;;;;;;5144385;27;20514;-40
2021/05/30 09:54:11;;;;;;;4.20;2.93;;;15.40;99.90;;;;;;5145303;27;20473;-39
2021/05/30 09:56:44;;;;;;;4.20;2.73;;;15.40;99.90;;;;;;5145259;27;20920;-40
2021/05/30 09:59:15;;;;;;;3.03;2.60;;;15.30;99.90;;;;;;5144816;27;20454;-40
2021/05/30 10:01:52;;;;;;;2.60;2.40;;;15.30;99.90;;;;;;5144303;27;20491;-41
2021/05/30 10:04:24;;;;;;;2.50;2.30;;;15.20;99.90;;;;;;5144516;27;20464;-41
2021/05/30 10:06:56;;;;;;;4.10;3.30;;;15.10;99.90;;;;;;5144559;27;20463;-40
2021/05/30 10:09:28;;;;;;;3.60;2.90;;;15.10;99.90;;;;;;5144218;27;20468;-41
2021/05/30 10:11:59;;;;;;;2.80;2.60;;;15.10;99.90;;;;;;5144376;27;20996;-41
2021/05/30 10:14:31;;;;;;;3.77;3.27;;;15.00;99.90;;;;;;5144397;27;20461;-40
2021/05/30 10:17:03;;;;;;;2.60;2.40;;;15.00;99.90;;;;;;5144265;27;20445;-38
2021/05/30 10:19:38;;;;;;;2.97;2.50;;;14.90;99.90;;;;;;5143955;27;20554;-40
2021/05/30 10:22:09;;;;;;;3.67;2.60;;;14.90;99.90;;;;;;5143797;27;20509;-40
2021/05/30 10:24:41;;;;;;;3.10;2.53;;;14.90;99.90;;;;;;5144726;27;20780;-41
2021/05/30 10:27:18;;;;;;;3.30;3.10;;;14.80;99.90;;;;;;5144307;27;20559;-40
2021/05/30 10:30:16;;;;;;;4.33;3.10;;;14.80;99.90;;;;;;5138022;27;20473;-40
2021/05/30 10:33:08;;;;;;;3.57;3.00;;;14.70;99.90;;;;;;5144152;27;20468;-41
2021/05/30 10:35:39;;;;;;;3.23;2.93;;;14.70;99.90;;;;;;5142233;27;20448;-41
2021/05/30 10:38:11;;;;;;;2.80;2.60;;;14.70;99.90;;;;;;5137331;27;20464;-41
2021/05/30 10:40:43;;;;;;;3.87;2.90;;;14.60;99.90;;;;;;5143792;27;20460;-41
2021/05/30 10:43:23;;;;;;;3.90;2.93;;;14.50;99.90;;;;;;5143654;27;20546;-39
2021/05/30 10:46:08;;;;;;;3.47;3.17;;;14.50;99.90;;;;;;5142116;27;20452;-41
2021/05/30 10:48:41;;;;;;;3.23;2.93;;;14.50;99.90;;;;;;5137639;27;20520;-39
2021/05/30 10:51:25;;;;;;;3.40;3.17;;;14.40;99.90;;;;;;5143713;27;20524;-41
2021/05/30 10:54:07;;;;;;;3.23;2.93;;;14.40;99.90;;;;;;5144443;27;20468;-40
2021/05/30 10:56:39;;;;;;;3.47;3.17;;;14.30;99.90;;;;;;5143149;27;20457;-40
2021/05/30 10:59:27;;;;;;;3.53;3.00;;;14.20;99.90;;;;;;5143053;27;20453;-41
2021/05/30 11:01:57;;;;;;;3.73;3.43;;;14.10;99.90;;;;;;5142812;27;20464;-41
2021/05/30 11:04:37;;;;;;;5.33;3.30;;;14.00;99.90;;;;;;5142219;27;20550;-41
2021/05/30 11:07:10;;;;;;;3.40;2.97;;;14.00;99.90;;;;;;5142889;27;20478;-40
2021/05/30 11:10:19;;;;;;;4.23;2.93;;;14.00;99.90;;;;;;5144178;27;20441;-41
2021/05/30 11:12:54;;;;;;;3.87;3.47;;;13.90;99.90;;;;;;5140760;27;20448;-41
2021/05/30 11:15:29;;;;;;;3.30;3.00;;;14.00;99.90;;;;;;5141209;27;20555;-41
2021/05/30 11:18:01;;;;;;;3.30;2.60;;;13.90;99.90;;;;;;5138839;27;20479;-40
2021/05/30 11:20:40;;;;;;;3.53;3.10;;;13.90;99.90;;;;;;5143357;27;20448;-41
2021/05/30 11:23:13;;;;;;;3.50;3.20;;;13.90;99.90;;;;;;5138125;27;20444;-40
2021/05/30 11:25:48;;;;;;;4.97;3.17;;;13.90;99.90;;;;;;5139434;27;20451;-39
2021/05/30 11:28:20;;;;;;;5.47;4.00;;;13.90;99.90;;;;;;5142653;27;20477;-40
2021/05/30 11:30:53;;;;;;;4.60;3.40;;;13.90;99.90;;;;;;5140623;28;20567;-40
2021/05/30 11:33:42;;;;;;;4.43;3.50;;;13.90;99.90;;;;;;5142120;27;20453;-41
2021/05/30 11:36:30;;;;;;;3.40;3.20;;;13.80;99.90;;;;;;5141317;28;20580;-40
2021/05/30 11:39:09;;;;;;;3.70;3.40;;;13.80;99.90;;;;;;5140908;27;20444;-41
2021/05/30 11:41:43;;;;;;;4.50;3.23;;;13.80;99.90;;;;;;5140410;27;20445;-40
2021/05/30 11:44:26;;;;;;;2.93;2.73;;;13.70;99.90;;;;;;5139532;28;20457;-41
2021/05/30 11:46:57;;;;;;;3.37;3.07;;;13.70;99.90;;;;;;5144276;27;20444;-41
2021/05/30 11:49:29;;;;;;;4.37;3.40;;;13.70;99.90;;;;;;5146885;27;20479;-39
2021/05/30 11:52:03;;;;;;;4.30;3.37;;;13.60;99.90;;;;;;5144609;27;20556;-40
2021/05/30 11:54:35;;;;;;;4.73;2.80;;;13.70;99.90;;;;;;5147266;27;20443;-41
2021/05/30 11:57:07;;;;;;;4.20;3.70;;;13.60;99.90;;;;;;5155010;27;20448;-41
2021/05/30 11:59:44;;;;;;;4.50;3.17;;;13.60;99.90;;;;;;5145431;27;20468;-40
2021/05/30 12:02:29;;;;;;;3.00;2.77;;;13.50;99.90;;;;;;5145585;27;20458;-40
2021/05/30 12:05:04;;;;;;;3.70;3.40;;;13.50;99.90;;;;;;5146041;27;20455;-41
2021/05/30 12:07:36;;;;;;;4.50;3.00;;;13.40;99.90;;;;;;5146738;27;20468;-40
2021/05/30 12:10:08;;;;;;;3.30;3.00;;;13.40;99.90;;;;;;5144874;27;20460;-40
2021/05/30 12:12:42;;;;;;;3.50;3.03;;;13.40;99.90;;;;;;5147211;27;20472;-40
2021/05/30 12:15:15;;;;;;;3.57;3.23;;;13.30;99.90;;;;;;5145726;27;20487;-40
2021/05/30 12:18:00;;;;;;;3.87;3.50;;;13.30;99.90;;;;;;5144353;27;20502;-41
2021/05/30 12:20:32;;;;;;;3.60;3.30;;;13.20;99.90;;;;;;5143928;27;20955;-39
2021/05/30 12:23:12;;;;;;;3.70;3.40;;;13.10;99.90;;;;;;5145818;27;20455;-40
2021/05/30 12:25:53;;;;;;;3.67;3.37;;;13.10;99.90;;;;;;5144799;27;20433;-41
2021/05/30 12:28:25;;;;;;;3.90;3.47;;;13.00;99.90;;;;;;5144755;27;20480;-40
2021/05/30 12:30:56;;;;;;;3.23;2.93;;;13.00;99.90;;;;;;5146070;27;20536;-41
2021/05/30 12:33:27;;;;;;;3.97;3.33;;;13.00;99.90;;;;;;5144132;27;20481;-40
2021/05/30 12:35:58;;;;;;;5.30;3.43;;;12.90;99.90;;;;;;5145439;27;20570;-40
2021/05/30 12:38:30;;;;;;;4.03;3.33;;;12.90;99.90;;;;;;5138121;27;20476;-40
2021/05/30 12:41:03;;;;;;;3.30;3.00;;;12.90;99.90;;;;;;5146802;27;20448;-39
2021/05/30 12:43:39;;;;;;;4.23;3.80;;;12.90;99.90;;;;;;5148141;27;20445;-40
2021/05/30 12:46:11;;;;;;;4.47;4.07;;;12.90;99.90;;;;;;5144743;27;20499;-40
2021/05/30 12:48:43;;;;;;;4.00;3.70;;;12.80;99.90;;;;;;5143594;27;20445;-40
2021/05/30 12:51:18;;;;;;;3.33;2.97;;;12.80;99.90;;;;;;5142229;27;20502;-40
2021/05/30 12:53:50;;;;;;;4.47;4.03;;;12.70;99.90;;;;;;5144008;27;20517;-40
2021/05/30 12:56:23;;;;;;;4.47;4.17;;;12.70;99.90;;;;;;5145990;27;22019;-40
2021/05/30 12:59:13;;;;;;;3.40;3.10;;;12.80;99.90;;;;;;5145125;27;20544;-40
2021/05/30 13:01:46;;;;;;;4.53;4.17;;;12.80;99.90;;;;;;5136148;27;20533;-40
2021/05/30 13:04:22;;;;;;;4.43;3.90;;;12.90;99.90;;;;;;5143147;27;20440;-41
2021/05/30 13:06:57;;;;;;;3.50;3.20;;;13.00;99.90;;;;;;5143609;27;20452;-42
2021/05/30 13:09:29;;;;;;;3.90;3.60;;;13.00;99.90;;;;;;5141739;27;20444;-40